Etusivu
METAR-TAF:

METAR-TAF

Lentoasemat :

Jayapura, Indonesia

Leveyspiiri: 02-34-37S, Pituuspiiri: 140-30-58E, korkeus merenpinnasta: 88 m

Tämänhetkinen sää

Tämä raportti tehtiin 26 minuuttia sitten, kello 07.30 UTC
Tuuli 9 kn lännestä
Lämpötila 31°C
Kosteus 71%
Ilmanpaine 1008 hPa
Näkyvyys 10 km tai enemmän
Muutamia pilviä 1200 ft:n korkeudessa, Cumulonimbus.
Muutamia pilviä 1300 ft:n korkeudessa
sadekuuroja näköpiirissä

METAR: WAJJ 260730Z 28009KT 9999 VCSH FEW012CB FEW013 31/25 Q1008 NOSIG

Aika: 14:56 (07:56 UTC)


TAF: puuttuu

Säähavainnot ja -ennusteet yli 4000 lentoasemalta (METAR- ja TAF-raportit).

Käytössä olevat sääasemat on merkitty karttaan keltaisilla ja punaisilla pisteillä.

Aseta hiiri pisteen päälle nähdäksesi sääaseman nimen.

Klikkaa sitten nähdäksesi säähavainnot ja -ennusteet.

Kartan vaihtaminen: klikkaa mustalla rastilla varustettuja vihreitä pisteitä, niin voit zoomata sisään; viivalla varustettua vihreää pistettä, niin voit zoomata ulos tai vihreitä nuolia, niin pääset viereisille kartoille.


METAR-TAF: